createdAt,value
2022-10-03T00:02:07.498Z,0.75
2022-10-03T00:04:37.257Z,0.93
2022-10-03T00:07:16.610Z,1.23
2022-10-03T00:10:06.078Z,3.15
2022-10-03T00:13:05.664Z,0.80
2022-10-03T00:15:35.718Z,0.65
2022-10-03T00:18:30.912Z,2.13
2022-10-03T00:21:30.464Z,1.98
2022-10-03T00:24:24.302Z,1.58
2022-10-03T00:27:06.472Z,2.28
2022-10-03T00:29:51.239Z,1.88
2022-10-03T00:32:48.910Z,2.88
2022-10-03T00:35:57.235Z,3.97
2022-10-03T00:38:48.543Z,1.30
2022-10-03T00:41:37.562Z,3.47
2022-10-03T00:44:23.079Z,1.92
2022-10-03T00:47:08.545Z,2.38
2022-10-03T00:50:00.456Z,2.70
2022-10-03T00:55:40.248Z,3.78
2022-10-03T00:58:29.810Z,1.80
2022-10-03T01:01:06.987Z,3.65
2022-10-03T01:03:43.074Z,2.13
2022-10-03T01:06:19.535Z,2.50
2022-10-03T01:09:14.214Z,3.78
2022-10-03T01:12:17.032Z,2.00
2022-10-03T01:15:07.207Z,3.63
2022-10-03T01:17:55.197Z,5.63
2022-10-03T01:20:48.433Z,3.67
2022-10-03T01:23:58.676Z,4.03
2022-10-03T01:26:51.455Z,3.28
2022-10-03T01:30:01.983Z,4.50
2022-10-03T01:32:46.367Z,3.90
2022-10-03T01:35:48.029Z,3.67
2022-10-03T01:38:20.749Z,7.88
2022-10-03T01:40:47.610Z,4.20
2022-10-03T01:43:39.388Z,3.38
2022-10-03T01:46:21.668Z,2.58
2022-10-03T01:49:27.186Z,3.92
2022-10-03T01:52:33.172Z,3.05
2022-10-03T01:55:05.963Z,4.13
2022-10-03T01:57:47.117Z,3.80
2022-10-03T02:00:20.330Z,4.05
2022-10-03T02:02:54.633Z,5.82
2022-10-03T02:05:59.236Z,7.63
2022-10-03T02:08:35.042Z,2.47
2022-10-03T02:11:08.474Z,4.03
2022-10-03T02:13:48.399Z,3.33
2022-10-03T02:16:30.221Z,4.30
2022-10-03T02:22:14.405Z,5.82
2022-10-03T02:24:57.340Z,6.03
2022-10-03T02:27:57.420Z,5.72
2022-10-03T02:30:43.099Z,32.25
2022-10-03T02:33:28.523Z,23.88
2022-10-03T02:36:10.469Z,4.63
2022-10-03T02:38:46.143Z,4.35
2022-10-03T02:41:41.259Z,5.05
2022-10-03T02:44:21.556Z,2.92
2022-10-03T02:47:07.897Z,3.42
2022-10-03T02:49:47.967Z,4.00
2022-10-03T02:52:26.813Z,5.22
2022-10-03T02:55:23.921Z,4.75
2022-10-03T02:58:18.267Z,3.92
2022-10-03T03:01:22.779Z,4.55
2022-10-03T03:04:23.956Z,3.25
2022-10-03T03:07:15.729Z,6.17
2022-10-03T03:10:04.820Z,4.25
2022-10-03T03:13:09.180Z,7.13
2022-10-03T03:15:57.988Z,13.77
2022-10-03T03:18:50.825Z,7.57
2022-10-03T03:22:05.587Z,42.58
2022-10-03T03:24:59.754Z,32.20
2022-10-03T03:28:02.178Z,48.08
2022-10-03T03:30:51.447Z,49.35
2022-10-03T03:33:30.245Z,40.58
2022-10-03T03:36:09.741Z,28.15
2022-10-03T03:38:52.071Z,61.40
2022-10-03T03:42:05.268Z,21.58
2022-10-03T03:45:02.455Z,14.80
2022-10-03T03:47:48.189Z,8.65
2022-10-03T03:50:46.113Z,23.73
2022-10-03T03:53:18.808Z,10.73
2022-10-03T03:55:51.450Z,6.47
2022-10-03T03:58:33.356Z,8.05
2022-10-03T04:01:42.513Z,5.22
2022-10-03T04:04:31.801Z,5.82
2022-10-03T04:07:20.816Z,5.88
2022-10-03T04:10:17.920Z,8.48
2022-10-03T04:12:55.943Z,12.10
2022-10-03T04:15:52.939Z,10.68
2022-10-03T04:18:58.393Z,5.35
2022-10-03T04:21:43.333Z,4.93
2022-10-03T04:24:38.015Z,4.63
2022-10-03T04:27:38.036Z,5.22
2022-10-03T04:30:09.432Z,4.93
2022-10-03T04:32:50.614Z,4.00
2022-10-03T04:35:42.453Z,4.45
2022-10-03T04:39:06.655Z,7.10
2022-10-03T04:41:57.595Z,4.10
2022-10-03T04:44:39.615Z,5.20
2022-10-03T04:47:18.009Z,6.43
2022-10-03T04:50:25.539Z,6.35
2022-10-03T04:53:19.960Z,5.65
2022-10-03T04:55:57.251Z,5.95
2022-10-03T04:58:33.093Z,5.05
2022-10-03T05:01:18.248Z,4.10
2022-10-03T05:04:15.980Z,4.65
2022-10-03T05:06:48.872Z,4.15
2022-10-03T05:09:50.910Z,5.50
2022-10-03T05:15:14.288Z,5.47
2022-10-03T05:18:00.454Z,4.60
2022-10-03T05:20:39.534Z,5.30
2022-10-03T05:23:24.813Z,5.72
2022-10-03T05:26:23.106Z,10.13
2022-10-03T05:29:15.866Z,6.70
2022-10-03T05:31:44.982Z,6.03
2022-10-03T05:34:11.968Z,10.38
2022-10-03T05:37:21.484Z,9.30
2022-10-03T05:40:02.677Z,9.18
2022-10-03T05:42:44.500Z,5.38
2022-10-03T05:45:24.501Z,11.90
2022-10-03T05:48:00.618Z,7.47
2022-10-03T05:50:57.756Z,20.33
2022-10-03T05:53:53.929Z,7.82
2022-10-03T05:56:41.123Z,8.40
2022-10-03T05:59:33.015Z,10.98
2022-10-03T06:02:22.160Z,27.65
2022-10-03T06:05:13.231Z,13.55
2022-10-03T06:08:01.775Z,5.43
2022-10-03T06:10:51.030Z,8.05
2022-10-03T06:13:33.082Z,6.40
2022-10-03T06:16:11.897Z,5.70
2022-10-03T06:19:12.883Z,15.45
2022-10-03T06:22:17.667Z,16.50
2022-10-03T06:25:12.675Z,11.00
2022-10-03T06:28:04.905Z,6.60
2022-10-03T06:30:44.222Z,6.75
2022-10-03T06:33:37.029Z,5.85
2022-10-03T06:36:36.376Z,7.03
2022-10-03T06:39:40.118Z,5.97
2022-10-03T06:42:22.002Z,4.30
2022-10-03T06:45:17.897Z,5.47
2022-10-03T06:48:12.735Z,5.25
2022-10-03T06:51:30.626Z,7.28
2022-10-03T06:54:43.120Z,8.15
2022-10-03T07:00:11.052Z,8.10
2022-10-03T07:02:57.819Z,11.80
2022-10-03T07:05:43.002Z,11.70
2022-10-03T07:08:27.875Z,12.77
2022-10-03T07:11:10.189Z,9.85
2022-10-03T07:13:52.128Z,4.22
2022-10-03T07:16:41.788Z,7.63
2022-10-03T07:19:38.375Z,7.00
2022-10-03T07:22:17.205Z,9.27
2022-10-03T07:25:09.916Z,17.70
2022-10-03T07:27:51.293Z,7.75
2022-10-03T07:30:26.471Z,11.27
2022-10-03T07:33:17.787Z,7.95
2022-10-03T07:36:38.563Z,9.52
2022-10-03T07:39:58.343Z,24.15
2022-10-03T07:42:34.324Z,12.23
2022-10-03T07:45:13.257Z,7.90
2022-10-03T07:48:02.079Z,9.75
2022-10-03T07:50:47.703Z,9.60
2022-10-03T07:53:43.383Z,9.15
2022-10-03T07:56:51.801Z,12.85
2022-10-03T07:59:43.371Z,11.38
2022-10-03T08:02:22.737Z,9.27
2022-10-03T08:04:58.600Z,12.40
2022-10-03T08:08:09.421Z,9.05
2022-10-03T08:11:10.233Z,11.25
2022-10-03T08:13:55.355Z,8.15
2022-10-03T08:16:22.232Z,10.30
2022-10-03T08:19:01.312Z,6.55
2022-10-03T08:22:01.299Z,9.05
2022-10-03T08:24:50.257Z,10.95
2022-10-03T08:27:29.092Z,10.43
2022-10-03T08:30:53.217Z,7.88
2022-10-03T08:33:42.889Z,7.15
2022-10-03T08:36:36.979Z,10.95
2022-10-03T08:39:25.780Z,7.47
2022-10-03T08:42:30.357Z,9.85
2022-10-03T08:45:17.911Z,7.78
2022-10-03T08:48:02.553Z,7.93
2022-10-03T08:50:29.493Z,13.32
2022-10-03T08:53:20.639Z,14.13
2022-10-03T08:55:55.670Z,7.65
2022-10-03T08:58:31.472Z,10.77
2022-10-03T09:01:16.712Z,8.40
2022-10-03T09:03:58.809Z,10.30
2022-10-03T09:07:05.191Z,9.15
2022-10-03T09:09:43.241Z,11.32
2022-10-03T09:12:27.003Z,9.18
2022-10-03T09:15:05.801Z,8.23
2022-10-03T09:17:44.932Z,6.75
2022-10-03T09:20:42.084Z,5.55
2022-10-03T09:23:27.938Z,9.52
2022-10-03T09:26:31.960Z,7.53
2022-10-03T09:29:23.660Z,8.85
2022-10-03T09:32:21.482Z,7.53
2022-10-03T09:35:25.501Z,6.30
2022-10-03T09:37:52.409Z,7.75
2022-10-03T09:40:25.207Z,6.88
2022-10-03T09:43:33.489Z,9.23
2022-10-03T09:46:30.567Z,5.38
2022-10-03T09:49:35.341Z,5.45
2022-10-03T09:52:11.118Z,9.18
2022-10-03T09:54:59.854Z,6.32
2022-10-03T09:57:42.198Z,5.60
2022-10-03T10:00:15.666Z,6.55
2022-10-03T10:03:13.032Z,6.35
2022-10-03T10:06:11.184Z,11.55
2022-10-03T10:08:38.112Z,8.10
2022-10-03T10:11:35.238Z,6.10
2022-10-03T10:14:39.879Z,4.80
2022-10-03T10:17:31.429Z,5.93
2022-10-03T10:20:13.389Z,4.60
2022-10-03T10:23:04.508Z,7.38
2022-10-03T10:25:56.329Z,5.43
2022-10-03T10:28:42.149Z,6.47
2022-10-03T10:31:24.208Z,4.95
2022-10-03T10:34:19.245Z,5.82
2022-10-03T10:37:33.101Z,5.97
2022-10-03T10:40:02.926Z,7.50
2022-10-03T10:42:48.581Z,6.57
2022-10-03T10:45:46.939Z,5.95
2022-10-03T10:48:25.824Z,8.38
2022-10-03T10:51:10.708Z,6.03
2022-10-03T10:54:05.729Z,8.50
2022-10-03T10:57:14.289Z,4.88
2022-10-03T10:59:59.196Z,5.07
2022-10-03T11:02:47.336Z,6.15
2022-10-03T11:05:23.384Z,7.60
2022-10-03T11:08:02.298Z,5.57
2022-10-03T11:10:36.556Z,4.95
2022-10-03T11:13:43.591Z,8.88
2022-10-03T11:16:45.351Z,6.60
2022-10-03T11:21:53.636Z,4.25
2022-10-03T11:24:42.452Z,4.53
2022-10-03T11:27:22.411Z,10.00
2022-10-03T11:30:16.595Z,11.48
2022-10-03T11:33:21.787Z,5.63
2022-10-03T11:36:27.227Z,4.85
2022-10-03T11:39:17.231Z,4.45
2022-10-03T11:41:51.730Z,6.15
2022-10-03T11:44:50.228Z,6.00
2022-10-03T11:47:51.202Z,3.25
2022-10-03T11:50:19.050Z,5.77
2022-10-03T11:53:04.474Z,5.20
2022-10-03T11:55:34.067Z,3.67
2022-10-03T11:58:12.119Z,4.43
2022-10-03T12:00:42.861Z,4.53
2022-10-03T12:03:19.229Z,4.75
2022-10-03T12:06:16.938Z,8.82
2022-10-03T12:09:14.859Z,6.93
2022-10-03T12:11:54.144Z,5.32
2022-10-03T12:14:39.900Z,3.97
2022-10-03T12:17:15.884Z,4.93
2022-10-03T12:20:02.587Z,5.07
2022-10-03T12:22:32.267Z,5.05
2022-10-03T12:25:24.095Z,4.38
2022-10-03T12:28:27.927Z,6.40
2022-10-03T12:30:57.714Z,3.70
2022-10-03T12:33:53.501Z,6.10
2022-10-03T12:36:26.187Z,5.18
2022-10-03T12:39:16.594Z,3.55
2022-10-03T12:42:15.768Z,5.35
2022-10-03T12:45:04.503Z,5.47
2022-10-03T12:48:00.694Z,6.18
2022-10-03T12:50:46.965Z,4.75
2022-10-03T12:53:17.403Z,6.20
2022-10-03T12:55:56.107Z,5.97
2022-10-03T12:58:46.647Z,4.57
2022-10-03T13:01:39.609Z,5.35
2022-10-03T13:04:31.574Z,5.97
2022-10-03T13:07:20.919Z,4.45
2022-10-03T13:10:09.726Z,5.18
2022-10-03T13:12:50.246Z,3.22
2022-10-03T13:15:42.858Z,5.82
2022-10-03T13:18:47.408Z,4.07
2022-10-03T13:21:46.801Z,3.90
2022-10-03T13:24:42.950Z,5.65
2022-10-03T13:27:29.354Z,3.78
2022-10-03T13:30:07.310Z,6.32
2022-10-03T13:32:34.935Z,4.30
2022-10-03T13:35:47.008Z,3.88
2022-10-03T13:38:15.205Z,3.15
2022-10-03T13:40:49.776Z,2.67
2022-10-03T13:43:24.965Z,5.63
2022-10-03T13:45:58.983Z,3.78
2022-10-03T13:48:28.287Z,3.47
2022-10-03T13:51:02.350Z,5.22
2022-10-03T13:53:43.282Z,3.42
2022-10-03T13:56:39.868Z,3.00
2022-10-03T13:59:49.878Z,3.75
2022-10-03T14:02:32.432Z,3.50
2022-10-03T14:05:39.693Z,3.55
2022-10-03T14:08:23.463Z,3.30
2022-10-03T14:11:03.128Z,4.43
2022-10-03T14:13:39.923Z,3.75
2022-10-03T14:16:21.906Z,3.40
2022-10-03T14:19:10.071Z,4.43
2022-10-03T14:22:01.931Z,4.97
2022-10-03T14:24:50.691Z,13.43
2022-10-03T14:27:24.687Z,17.58
2022-10-03T14:30:06.751Z,9.02
2022-10-03T14:33:00.711Z,4.30
2022-10-03T14:35:39.998Z,6.00
2022-10-03T14:38:07.755Z,4.03
2022-10-03T14:40:56.678Z,4.50
2022-10-03T14:43:46.146Z,4.18
2022-10-03T14:46:15.888Z,5.15
2022-10-03T14:48:50.222Z,8.13
2022-10-03T14:51:22.620Z,8.05
2022-10-03T14:54:19.997Z,4.07
2022-10-03T14:56:49.244Z,3.97
2022-10-03T14:59:35.269Z,6.40
2022-10-03T15:02:25.674Z,3.63
2022-10-03T15:04:56.813Z,3.90
2022-10-03T15:07:40.334Z,3.15
2022-10-03T15:10:14.716Z,2.92
2022-10-03T15:12:46.404Z,5.25
2022-10-03T15:15:31.475Z,4.28
2022-10-03T15:18:02.986Z,4.15
2022-10-03T15:23:05.947Z,7.38
2022-10-03T15:25:38.024Z,5.68
2022-10-03T15:28:18.490Z,4.55
2022-10-03T15:30:47.053Z,5.80
2022-10-03T15:33:22.786Z,6.88
2022-10-03T15:35:55.386Z,3.50
2022-10-03T15:38:32.831Z,3.17
2022-10-03T15:41:12.768Z,5.57
2022-10-03T15:44:02.596Z,4.70
2022-10-03T15:46:29.712Z,4.05
2022-10-03T15:49:00.861Z,3.60
2022-10-03T15:51:30.251Z,9.45
2022-10-03T15:54:00.363Z,3.97
2022-10-03T15:56:34.419Z,4.25
2022-10-03T15:59:07.429Z,6.07
2022-10-03T16:01:47.641Z,5.32
2022-10-03T16:04:29.723Z,6.65
2022-10-03T16:07:07.714Z,8.18
2022-10-03T16:09:56.697Z,7.68
2022-10-03T16:13:00.289Z,4.78
2022-10-03T16:15:52.380Z,8.40
2022-10-03T16:18:19.325Z,4.75
2022-10-03T16:20:55.059Z,8.18
2022-10-03T16:23:30.310Z,4.15
2022-10-03T16:26:02.241Z,6.03
2022-10-03T16:28:44.016Z,4.13
2022-10-03T16:33:58.264Z,7.65
2022-10-03T16:36:25.887Z,10.77
2022-10-03T16:38:54.226Z,9.45
2022-10-03T16:41:25.448Z,7.78
2022-10-03T16:44:01.825Z,8.63
2022-10-03T16:46:37.557Z,4.75
2022-10-03T16:49:50.087Z,4.63
2022-10-03T16:52:31.034Z,8.93
2022-10-03T16:55:16.878Z,8.13
2022-10-03T16:57:56.866Z,7.43
2022-10-03T17:00:32.571Z,5.40
2022-10-03T17:03:01.600Z,7.80
2022-10-03T17:05:36.426Z,7.13
2022-10-03T17:08:29.795Z,6.25
2022-10-03T17:11:00.409Z,10.15
2022-10-03T17:13:50.299Z,10.48
2022-10-03T17:16:27.705Z,8.77
2022-10-03T17:19:33.837Z,10.68
2022-10-03T17:22:08.860Z,8.73
2022-10-03T17:24:39.300Z,8.90
2022-10-03T17:27:22.749Z,7.80
2022-10-03T17:29:59.717Z,10.55
2022-10-03T17:32:29.435Z,12.20
2022-10-03T17:35:00.823Z,9.52
2022-10-03T17:37:58.212Z,9.27
2022-10-03T17:40:53.959Z,7.93
2022-10-03T17:43:41.439Z,6.65
2022-10-03T17:46:22.010Z,12.43
2022-10-03T17:49:26.714Z,13.15
2022-10-03T17:51:56.152Z,9.80
2022-10-03T17:54:35.818Z,10.40
2022-10-03T17:57:25.606Z,8.20
2022-10-03T18:00:02.974Z,9.85
2022-10-03T18:02:31.956Z,7.97
2022-10-03T18:05:24.070Z,12.23
2022-10-03T18:10:23.747Z,13.25
2022-10-03T18:12:54.269Z,10.50
2022-10-03T18:15:53.397Z,15.75
2022-10-03T18:18:50.048Z,9.90
2022-10-03T18:21:37.912Z,8.90
2022-10-03T18:24:05.076Z,9.15
2022-10-03T18:26:37.503Z,7.70
2022-10-03T18:29:40.383Z,11.25
2022-10-03T18:32:07.355Z,10.77
2022-10-03T18:34:43.674Z,7.63
2022-10-03T18:37:16.764Z,8.27
2022-10-03T18:39:45.228Z,8.02
2022-10-03T18:42:12.574Z,6.97
2022-10-03T18:44:44.994Z,10.38
2022-10-03T18:47:32.678Z,8.30
2022-10-03T18:50:06.831Z,11.55
2022-10-03T18:52:39.791Z,7.43
2022-10-03T18:55:31.815Z,7.45
2022-10-03T18:58:20.533Z,10.05
2022-10-03T19:01:05.798Z,17.08
2022-10-03T19:03:43.184Z,17.33
2022-10-03T19:06:19.519Z,9.73
2022-10-03T19:08:59.705Z,9.60
2022-10-03T19:11:34.435Z,11.25
2022-10-03T19:14:16.282Z,12.52
2022-10-03T19:19:28.560Z,12.43
2022-10-03T19:21:56.350Z,12.85
2022-10-03T19:24:53.362Z,11.32
2022-10-03T19:27:38.363Z,21.63
2022-10-03T19:30:07.701Z,20.20
2022-10-03T19:32:49.931Z,21.65
2022-10-03T19:35:21.915Z,16.33
2022-10-03T19:37:51.881Z,17.70
2022-10-03T19:40:21.890Z,17.13
2022-10-03T19:42:54.039Z,15.95
2022-10-03T19:45:21.089Z,14.40
2022-10-03T19:48:01.401Z,11.45
2022-10-03T19:50:31.478Z,10.30
2022-10-03T19:52:58.955Z,12.48
2022-10-03T19:55:39.000Z,10.45
2022-10-03T19:58:15.256Z,8.55
2022-10-03T20:00:57.956Z,9.23
2022-10-03T20:03:39.581Z,9.73
2022-10-03T20:06:19.389Z,14.38
2022-10-03T20:09:05.330Z,10.85
2022-10-03T20:11:48.031Z,9.23
2022-10-03T20:14:27.213Z,11.90
2022-10-03T20:17:15.828Z,9.98
2022-10-03T20:19:56.675Z,12.65
2022-10-03T20:22:30.981Z,11.73
2022-10-03T20:24:59.282Z,18.95
2022-10-03T20:27:35.784Z,11.55
2022-10-03T20:30:08.751Z,9.88
2022-10-03T20:32:43.057Z,9.73
2022-10-03T20:35:23.538Z,10.57
2022-10-03T20:38:08.142Z,12.07
2022-10-03T20:40:37.464Z,8.10
2022-10-03T20:43:41.394Z,6.72
2022-10-03T20:46:15.988Z,11.00
2022-10-03T20:49:18.092Z,12.80
2022-10-03T20:54:23.717Z,8.75
2022-10-03T20:57:05.111Z,11.70
2022-10-03T20:59:46.355Z,8.50
2022-10-03T21:02:19.575Z,10.50
2022-10-03T21:05:01.778Z,10.88
2022-10-03T21:07:38.425Z,8.57
2022-10-03T21:10:43.564Z,10.18
2022-10-03T21:13:25.352Z,12.32
2022-10-03T21:15:57.214Z,10.07
2022-10-03T21:18:27.883Z,8.02
2022-10-03T21:21:18.183Z,11.35
2022-10-03T21:24:27.426Z,9.48
2022-10-03T21:27:15.071Z,10.75
2022-10-03T21:30:03.370Z,8.02
2022-10-03T21:32:54.919Z,8.52
2022-10-03T21:35:37.491Z,9.52
2022-10-03T21:38:23.552Z,8.80
2022-10-03T21:41:09.727Z,11.95
2022-10-03T21:43:54.548Z,9.68
2022-10-03T21:46:44.907Z,9.35
2022-10-03T21:49:48.871Z,8.15
2022-10-03T21:52:46.208Z,7.95
2022-10-03T21:55:52.526Z,9.82
2022-10-03T21:58:38.908Z,10.20
2022-10-03T22:01:15.293Z,9.77
2022-10-03T22:04:09.245Z,9.93
2022-10-03T22:06:43.954Z,11.30
2022-10-03T22:09:15.567Z,7.30
2022-10-03T22:11:50.091Z,8.27
2022-10-03T22:14:29.753Z,7.72
2022-10-03T22:17:15.233Z,10.88
2022-10-03T22:20:12.836Z,13.25
2022-10-03T22:22:46.157Z,8.82
2022-10-03T22:25:20.844Z,8.80
2022-10-03T22:28:02.916Z,7.32
2022-10-03T22:30:32.012Z,9.77
2022-10-03T22:33:16.965Z,6.70
2022-10-03T22:35:49.110Z,8.93
2022-10-03T22:38:18.242Z,11.00
2022-10-03T22:40:47.216Z,8.30
2022-10-03T22:43:15.541Z,6.82
2022-10-03T22:45:45.621Z,9.70
2022-10-03T22:48:21.958Z,6.97
2022-10-03T22:50:49.739Z,12.18
2022-10-03T22:53:21.722Z,9.88
2022-10-03T22:55:53.140Z,7.65
2022-10-03T22:58:21.427Z,10.38
2022-10-03T23:00:51.669Z,8.38
2022-10-03T23:03:32.590Z,9.23
2022-10-03T23:06:27.125Z,9.68
2022-10-03T23:09:21.504Z,9.38
2022-10-03T23:11:51.269Z,7.63
2022-10-03T23:14:30.575Z,8.55
2022-10-03T23:17:16.287Z,6.97
2022-10-03T23:20:02.154Z,11.65
2022-10-03T23:22:31.431Z,7.97
2022-10-03T23:25:17.499Z,10.10
2022-10-03T23:27:55.782Z,5.20
2022-10-03T23:30:25.720Z,6.88
2022-10-03T23:32:55.558Z,8.07
2022-10-03T23:35:31.653Z,7.70
2022-10-03T23:38:00.022Z,8.52
2022-10-03T23:40:45.486Z,9.90
2022-10-03T23:43:36.386Z,10.30
2022-10-03T23:46:08.743Z,7.75
2022-10-03T23:48:44.810Z,9.32
2022-10-03T23:51:16.474Z,10.38
2022-10-03T23:56:48.005Z,7.18
2022-10-03T23:59:14.957Z,12.15
